createdAt,value
2018-11-14T00:01:16.372Z,8.07
2018-11-14T00:03:47.176Z,7.40
2018-11-14T00:06:17.984Z,10.70
2018-11-14T00:08:48.324Z,6.13
2018-11-14T00:11:19.703Z,9.27
2018-11-14T00:13:50.720Z,11.13
2018-11-14T00:16:21.727Z,10.87
2018-11-14T00:18:52.624Z,10.30
2018-11-14T00:21:23.713Z,12.07
2018-11-14T00:23:54.543Z,8.90
2018-11-14T00:26:25.380Z,12.70
2018-11-14T00:28:56.485Z,8.40
2018-11-14T00:31:27.456Z,10.77
2018-11-14T00:33:59.157Z,10.80
2018-11-14T00:36:29.640Z,7.90
2018-11-14T00:39:00.329Z,8.30
2018-11-14T00:41:30.962Z,11.50
2018-11-14T00:44:01.969Z,11.57
2018-11-14T00:46:32.019Z,13.83
2018-11-14T00:49:02.449Z,13.00
2018-11-14T00:51:33.507Z,15.70
2018-11-14T00:54:04.475Z,8.30
2018-11-14T00:56:34.682Z,9.00
2018-11-14T00:59:05.766Z,8.73
2018-11-14T01:01:37.034Z,9.03
2018-11-14T01:04:07.802Z,9.53
2018-11-14T01:06:39.064Z,10.87
2018-11-14T01:09:12.521Z,12.73
2018-11-14T01:11:43.565Z,9.63
2018-11-14T01:14:15.454Z,8.43
2018-11-14T01:16:47.063Z,10.40
2018-11-14T01:19:18.057Z,10.30
2018-11-14T01:21:48.903Z,11.07
2018-11-14T01:24:19.600Z,11.67
2018-11-14T01:26:50.156Z,10.20
2018-11-14T01:29:21.107Z,12.33
2018-11-14T01:31:52.027Z,8.37
2018-11-14T01:34:23.533Z,11.50
2018-11-14T01:36:55.401Z,10.47
2018-11-14T01:39:26.300Z,8.10
2018-11-14T01:41:57.376Z,7.93
2018-11-14T01:44:28.037Z,11.33
2018-11-14T01:46:59.023Z,9.70
2018-11-14T01:49:29.370Z,11.27
2018-11-14T01:51:59.353Z,9.07
2018-11-14T01:54:30.636Z,9.30
2018-11-14T01:57:02.149Z,8.90
2018-11-14T01:59:32.699Z,10.67
2018-11-14T02:02:03.593Z,10.70
2018-11-14T02:04:34.237Z,8.13
2018-11-14T02:07:05.482Z,10.50
2018-11-14T02:09:37.104Z,9.47
2018-11-14T02:12:08.221Z,10.13
2018-11-14T02:14:39.005Z,11.37
2018-11-14T02:17:10.028Z,12.20
2018-11-14T02:19:41.202Z,8.87
2018-11-14T02:22:12.204Z,10.43
2018-11-14T02:24:43.101Z,8.90
2018-11-14T02:27:13.774Z,8.53
2018-11-14T02:29:44.755Z,15.03
2018-11-14T02:32:15.474Z,12.03
2018-11-14T02:34:45.898Z,11.07
2018-11-14T02:37:17.520Z,9.10
2018-11-14T02:39:48.569Z,8.43
2018-11-14T02:42:19.364Z,13.03
2018-11-14T02:44:49.998Z,10.77
2018-11-14T02:47:20.777Z,8.93
2018-11-14T02:49:51.608Z,9.83
2018-11-14T02:52:22.444Z,13.07
2018-11-14T02:54:52.614Z,12.37
2018-11-14T02:57:23.797Z,7.90
2018-11-14T02:59:55.204Z,11.20
2018-11-14T03:02:25.832Z,11.27
2018-11-14T03:04:56.614Z,9.77
2018-11-14T03:07:27.313Z,9.87
2018-11-14T03:09:58.090Z,11.67
2018-11-14T03:12:28.499Z,14.47
2018-11-14T03:14:59.591Z,9.07
2018-11-14T03:17:30.361Z,8.53
2018-11-14T03:20:00.997Z,12.07
2018-11-14T03:22:32.078Z,11.23
2018-11-14T03:25:03.247Z,8.93
2018-11-14T03:27:33.509Z,12.23
2018-11-14T03:30:04.525Z,12.83
2018-11-14T03:32:34.488Z,10.07
2018-11-14T03:35:04.756Z,11.47
2018-11-14T03:37:35.469Z,10.63
2018-11-14T03:40:06.941Z,9.07
2018-11-14T03:42:37.731Z,11.53
2018-11-14T03:45:09.904Z,10.03
2018-11-14T03:47:41.288Z,10.63
2018-11-14T03:50:12.289Z,12.87
2018-11-14T03:52:43.002Z,10.33
2018-11-14T03:55:15.152Z,12.23
2018-11-14T03:57:45.957Z,12.00
2018-11-14T04:00:17.471Z,14.57
2018-11-14T04:02:48.426Z,10.00
2018-11-14T04:05:19.446Z,12.60
2018-11-14T04:07:50.196Z,11.47
2018-11-14T04:10:20.936Z,11.37
2018-11-14T04:12:51.997Z,9.70
2018-11-14T04:15:22.203Z,12.60
2018-11-14T04:17:52.990Z,13.83
2018-11-14T04:20:23.963Z,11.60
2018-11-14T04:22:54.994Z,13.57
2018-11-14T04:25:25.583Z,12.37
2018-11-14T04:27:56.296Z,10.43
2018-11-14T04:30:27.060Z,10.13
2018-11-14T04:32:57.957Z,11.00
2018-11-14T04:35:28.336Z,15.47
2018-11-14T04:37:59.620Z,10.27
2018-11-14T04:40:30.494Z,15.63
2018-11-14T04:43:00.773Z,12.47
2018-11-14T04:45:31.316Z,15.30
2018-11-14T04:48:02.739Z,10.33
2018-11-14T04:50:32.843Z,16.47
2018-11-14T04:53:02.855Z,14.37
2018-11-14T04:55:33.465Z,14.83
2018-11-14T04:58:04.499Z,15.00
2018-11-14T05:00:35.844Z,16.37
2018-11-14T05:03:06.510Z,52.00
2018-11-14T05:05:36.732Z,22.87
2018-11-14T05:08:07.702Z,12.07
2018-11-14T05:10:38.727Z,16.07
2018-11-14T05:13:10.113Z,12.43
2018-11-14T05:15:40.838Z,31.90
2018-11-14T05:18:12.140Z,20.47
2018-11-14T05:20:42.891Z,26.50
2018-11-14T05:23:13.992Z,19.53
2018-11-14T05:25:44.923Z,19.47
2018-11-14T05:28:16.286Z,17.07
2018-11-14T05:30:47.753Z,17.13
2018-11-14T05:33:18.938Z,14.37
2018-11-14T05:35:49.863Z,14.73
2018-11-14T05:38:21.181Z,13.00
2018-11-14T05:40:52.071Z,16.60
2018-11-14T05:43:23.000Z,47.60
2018-11-14T05:45:53.949Z,50.33
2018-11-14T05:48:24.855Z,46.27
2018-11-14T05:50:55.687Z,37.73
2018-11-14T05:53:26.832Z,17.37
2018-11-14T05:55:58.049Z,15.07
2018-11-14T05:58:29.097Z,29.37
2018-11-14T06:00:59.368Z,20.87
2018-11-14T06:03:30.652Z,18.93
2018-11-14T06:06:01.430Z,17.10
2018-11-14T06:08:32.399Z,19.20
2018-11-14T06:11:03.951Z,21.07
2018-11-14T06:13:35.105Z,15.37
2018-11-14T06:16:06.086Z,79.87
2018-11-14T06:18:36.816Z,87.00
2018-11-14T06:21:08.601Z,46.23
2018-11-14T06:23:38.761Z,18.27
2018-11-14T06:26:09.904Z,15.03
2018-11-14T06:28:40.895Z,17.33
2018-11-14T06:31:12.120Z,15.37
2018-11-14T06:33:42.960Z,14.90
2018-11-14T06:36:14.339Z,17.40
2018-11-14T06:38:45.747Z,15.00
2018-11-14T06:41:16.661Z,14.80
2018-11-14T06:43:47.511Z,14.20
2018-11-14T06:46:17.894Z,13.20
2018-11-14T06:48:48.683Z,18.17
2018-11-14T06:51:19.615Z,17.77
2018-11-14T06:53:50.434Z,16.77
2018-11-14T06:56:21.387Z,16.03
2018-11-14T06:58:52.559Z,18.23
2018-11-14T07:01:23.485Z,18.40
2018-11-14T07:03:54.455Z,14.87
2018-11-14T07:06:25.311Z,16.70
2018-11-14T07:08:56.182Z,18.90
2018-11-14T07:11:26.747Z,15.80
2018-11-14T07:13:57.747Z,16.13
2018-11-14T07:16:28.944Z,18.83
2018-11-14T07:19:00.686Z,19.37
2018-11-14T07:21:31.629Z,24.17
2018-11-14T07:24:02.890Z,25.77
2018-11-14T07:26:33.005Z,25.73
2018-11-14T07:29:06.199Z,27.00
2018-11-14T07:31:36.438Z,30.53
2018-11-14T07:34:07.362Z,31.70
2018-11-14T07:36:38.238Z,28.40
2018-11-14T07:39:10.340Z,26.03
2018-11-14T07:41:42.053Z,28.57
2018-11-14T07:44:13.050Z,39.87
2018-11-14T07:46:43.972Z,31.37
2018-11-14T07:49:15.452Z,31.53
2018-11-14T07:51:46.105Z,30.30
2018-11-14T07:54:16.851Z,30.70
2018-11-14T07:56:48.002Z,37.30
2018-11-14T07:59:19.421Z,27.23
2018-11-14T08:01:50.285Z,32.73
2018-11-14T08:04:21.202Z,30.27
2018-11-14T08:06:52.093Z,27.60
2018-11-14T08:09:22.835Z,33.03
2018-11-14T08:11:54.193Z,38.23
2018-11-14T08:14:25.225Z,38.00
2018-11-14T08:16:56.438Z,39.97
2018-11-14T08:19:28.098Z,32.43
2018-11-14T08:21:59.145Z,74.03
2018-11-14T08:24:30.175Z,40.50
2018-11-14T08:27:01.045Z,32.47
2018-11-14T08:29:31.448Z,34.80
2018-11-14T08:32:02.036Z,38.33
2018-11-14T08:34:33.199Z,31.60
2018-11-14T08:37:04.066Z,326.57
2018-11-14T08:39:34.871Z,39.17
2018-11-14T08:42:05.838Z,76.63
2018-11-14T08:44:36.317Z,26.37
2018-11-14T08:47:08.292Z,28.37
2018-11-14T08:49:39.719Z,31.63
2018-11-14T08:52:11.391Z,28.50
2018-11-14T08:54:43.139Z,31.03
2018-11-14T08:57:14.840Z,39.13
2018-11-14T08:59:46.717Z,29.77
2018-11-14T09:02:17.943Z,27.33
2018-11-14T09:04:49.132Z,28.37
2018-11-14T09:07:19.932Z,30.47
2018-11-14T09:09:50.802Z,28.30
2018-11-14T09:12:21.912Z,33.27
2018-11-14T09:14:52.322Z,30.20
2018-11-14T09:17:23.106Z,32.33
2018-11-14T09:19:54.631Z,31.43
2018-11-14T09:22:25.436Z,28.70
2018-11-14T09:24:56.444Z,103.03
2018-11-14T09:27:27.604Z,33.30
2018-11-14T09:29:58.496Z,31.67
2018-11-14T09:32:29.401Z,29.23
2018-11-14T09:35:00.484Z,31.83
2018-11-14T09:37:31.302Z,29.10
2018-11-14T09:40:02.268Z,27.87
2018-11-14T09:42:33.212Z,27.40
2018-11-14T09:45:04.209Z,30.93
2018-11-14T09:47:34.382Z,29.50
2018-11-14T09:50:05.841Z,30.93
2018-11-14T09:52:36.754Z,34.70
2018-11-14T09:55:08.337Z,30.93
2018-11-14T09:57:40.757Z,30.10
2018-11-14T10:00:15.090Z,29.40
2018-11-14T10:02:46.234Z,35.60
2018-11-14T10:05:19.775Z,29.03
2018-11-14T10:07:50.655Z,32.60
2018-11-14T10:10:22.521Z,28.03
2018-11-14T10:12:53.818Z,27.20
2018-11-14T10:15:25.067Z,30.47
2018-11-14T10:17:56.753Z,28.63
2018-11-14T10:20:27.781Z,31.00
2018-11-14T10:22:58.558Z,28.23
2018-11-14T10:25:29.284Z,43.43
2018-11-14T10:27:59.254Z,36.37
2018-11-14T10:30:30.348Z,29.87
2018-11-14T10:33:01.028Z,32.13
2018-11-14T10:35:31.504Z,33.83
2018-11-14T10:38:01.300Z,32.50
2018-11-14T10:40:31.310Z,33.40
2018-11-14T10:43:01.286Z,34.50
2018-11-14T10:45:31.127Z,31.20
2018-11-14T10:48:01.062Z,28.87
2018-11-14T10:50:30.917Z,32.50
2018-11-14T10:53:00.871Z,34.70
2018-11-14T10:55:30.822Z,36.40
2018-11-14T10:58:01.752Z,30.30
2018-11-14T11:00:36.586Z,31.33
2018-11-14T11:03:11.813Z,35.13
2018-11-14T11:05:46.860Z,35.03
2018-11-14T11:08:21.829Z,28.57
2018-11-14T11:10:56.979Z,31.57
2018-11-14T11:13:32.000Z,29.67
2018-11-14T11:16:06.950Z,30.13
2018-11-14T11:18:36.913Z,33.27
2018-11-14T11:34:37.075Z,32.60
2018-11-14T11:37:07.274Z,34.00
2018-11-14T11:39:37.182Z,32.50
2018-11-14T11:42:07.393Z,29.87
2018-11-14T11:44:37.502Z,30.70
2018-11-14T11:47:07.778Z,33.67
2018-11-14T11:49:37.930Z,35.70
2018-11-14T11:52:08.178Z,30.33
2018-11-14T11:54:38.362Z,31.63
2018-11-14T11:57:08.185Z,33.17
2018-11-14T11:59:38.634Z,34.47
2018-11-14T12:02:09.216Z,42.17
2018-11-14T12:04:39.359Z,33.07
2018-11-14T12:07:09.511Z,30.70
2018-11-14T12:09:39.699Z,33.13
2018-11-14T12:12:09.639Z,33.23
2018-11-14T12:14:39.862Z,32.83
2018-11-14T12:17:09.740Z,31.57
2018-11-14T12:19:39.688Z,34.70
2018-11-14T12:22:09.804Z,34.30
2018-11-14T12:24:39.842Z,34.47
2018-11-14T12:27:10.001Z,34.37
2018-11-14T12:42:40.491Z,29.77
2018-11-14T12:45:13.827Z,31.03
2018-11-14T12:47:43.926Z,29.57
2018-11-14T12:50:14.625Z,32.57
2018-11-14T12:52:44.741Z,36.63
2018-11-14T12:55:16.204Z,28.77
2018-11-14T12:57:46.170Z,47.53
2018-11-14T13:00:17.312Z,29.30
2018-11-14T13:02:47.418Z,34.07
2018-11-14T13:05:17.520Z,27.80
2018-11-14T13:07:47.387Z,31.07
2018-11-14T13:10:18.391Z,52.40
2018-11-14T13:12:49.215Z,45.27
2018-11-14T13:15:20.067Z,30.00
2018-11-14T13:17:49.672Z,29.17
2018-11-14T13:20:20.962Z,26.27
2018-11-14T13:22:50.829Z,30.93
2018-11-14T13:25:20.633Z,30.10
2018-11-14T13:27:50.616Z,30.13
2018-11-14T13:30:23.587Z,31.57
2018-11-14T13:32:54.112Z,32.43
2018-11-14T13:35:24.344Z,32.07
2018-11-14T13:37:53.985Z,35.23
2018-11-14T13:40:23.568Z,30.73
2018-11-14T13:42:53.283Z,33.83
2018-11-14T13:45:23.070Z,31.37
2018-11-14T13:47:52.758Z,51.23
2018-11-14T13:50:23.130Z,35.37
2018-11-14T13:52:52.825Z,37.40
2018-11-14T13:55:22.541Z,37.97
2018-11-14T13:57:52.841Z,115.40
2018-11-14T14:00:23.287Z,37.23
2018-11-14T14:02:53.940Z,138.13
2018-11-14T14:05:24.904Z,53.33
2018-11-14T14:07:54.467Z,39.40
2018-11-14T14:10:24.376Z,107.87
2018-11-14T14:12:55.031Z,166.43
2018-11-14T14:15:26.398Z,69.70
2018-11-14T14:17:56.204Z,78.77
2018-11-14T14:20:26.133Z,92.93
2018-11-14T14:22:56.143Z,76.47
2018-11-14T14:25:26.003Z,68.43
2018-11-14T14:27:56.088Z,389.13
2018-11-14T14:30:26.037Z,125.13
2018-11-14T14:32:56.042Z,74.77
2018-11-14T14:35:25.808Z,64.10
2018-11-14T14:37:55.666Z,57.77
2018-11-14T14:40:25.577Z,56.47
2018-11-14T14:42:55.613Z,46.30
2018-11-14T14:45:26.571Z,45.93
2018-11-14T14:47:56.401Z,44.00
2018-11-14T14:50:26.333Z,40.97
2018-11-14T14:52:56.284Z,40.07
2018-11-14T14:55:26.477Z,37.50
2018-11-14T14:57:56.157Z,35.83
2018-11-14T15:00:27.091Z,39.80
2018-11-14T15:02:57.072Z,43.17
2018-11-14T15:05:26.892Z,37.37
2018-11-14T15:07:56.570Z,95.37
2018-11-14T15:10:26.427Z,51.97
2018-11-14T15:12:56.311Z,37.67
2018-11-14T15:15:26.120Z,36.53
2018-11-14T15:17:55.731Z,34.37
2018-11-14T15:20:25.679Z,36.07
2018-11-14T15:22:55.452Z,37.33
2018-11-14T15:25:25.170Z,40.83
2018-11-14T15:27:54.969Z,40.17
2018-11-14T15:30:26.888Z,65.80
2018-11-14T15:32:56.701Z,250.10
2018-11-14T15:35:27.069Z,84.50
2018-11-14T15:37:56.751Z,77.13
2018-11-14T15:40:27.334Z,155.33
2018-11-14T15:42:57.307Z,107.57
2018-11-14T15:45:29.301Z,139.20
2018-11-14T15:47:59.273Z,73.13
2018-11-14T15:50:30.465Z,45.70
2018-11-14T15:53:00.451Z,42.33
2018-11-14T15:55:30.455Z,55.50
2018-11-14T15:58:00.089Z,75.20
2018-11-14T16:00:31.075Z,72.07
2018-11-14T16:03:00.996Z,62.90
2018-11-14T16:05:33.048Z,56.43
2018-11-14T16:08:03.689Z,44.03
2018-11-14T16:10:34.393Z,38.67
2018-11-14T16:13:04.420Z,41.57
2018-11-14T16:15:35.620Z,37.80
2018-11-14T16:18:05.621Z,44.40
2018-11-14T16:20:35.995Z,41.20
2018-11-14T16:23:06.004Z,50.57
2018-11-14T16:25:35.717Z,52.60
2018-11-14T16:28:05.681Z,44.00
2018-11-14T16:30:36.904Z,58.30
2018-11-14T16:33:07.950Z,57.67
2018-11-14T16:35:37.959Z,58.10
2018-11-14T16:38:08.396Z,55.03
2018-11-14T16:40:38.210Z,65.83
2018-11-14T16:43:09.198Z,65.27
2018-11-14T16:45:39.044Z,62.43
2018-11-14T16:48:08.954Z,54.57
2018-11-14T16:50:38.975Z,56.93
2018-11-14T16:53:08.727Z,64.40
2018-11-14T16:55:38.690Z,59.80
2018-11-14T16:58:08.249Z,60.93
2018-11-14T17:00:39.218Z,60.77
2018-11-14T17:03:09.061Z,60.23
2018-11-14T17:05:38.728Z,58.63
2018-11-14T17:08:08.383Z,53.60
2018-11-14T17:10:38.168Z,64.57
2018-11-14T17:13:08.000Z,64.40
2018-11-14T17:15:37.950Z,63.40
2018-11-14T17:18:07.762Z,66.57
2018-11-14T17:20:37.861Z,62.40
2018-11-14T17:23:07.920Z,69.23
2018-11-14T17:25:38.106Z,64.23
2018-11-14T17:28:08.429Z,67.53
2018-11-14T17:30:38.472Z,65.90
2018-11-14T17:33:08.648Z,60.77
2018-11-14T17:35:38.704Z,65.00
2018-11-14T17:38:08.572Z,65.03
2018-11-14T17:40:38.402Z,69.27
2018-11-14T17:43:08.373Z,74.47
2018-11-14T17:45:38.285Z,65.00
2018-11-14T17:48:08.314Z,68.40
2018-11-14T17:50:38.227Z,73.87
2018-11-14T17:53:08.183Z,78.77
2018-11-14T17:55:38.143Z,76.60
2018-11-14T17:58:08.017Z,79.70
2018-11-14T18:00:37.968Z,73.10
2018-11-14T18:03:08.298Z,74.17
2018-11-14T18:05:38.205Z,70.93
2018-11-14T18:08:08.363Z,81.77
2018-11-14T18:10:38.360Z,74.80
2018-11-14T18:13:08.511Z,73.07
2018-11-14T18:15:38.616Z,75.73
2018-11-14T18:18:08.664Z,71.57
2018-11-14T18:20:38.506Z,66.67
2018-11-14T18:23:08.495Z,69.47
2018-11-14T18:25:38.439Z,67.80
2018-11-14T18:28:08.562Z,68.93
2018-11-14T18:30:38.718Z,68.73
2018-11-14T18:33:08.931Z,68.47
2018-11-14T18:35:39.822Z,68.03
2018-11-14T18:38:09.788Z,68.10
2018-11-14T18:40:39.684Z,63.07
2018-11-14T18:43:09.863Z,67.97
2018-11-14T18:45:39.990Z,70.83
2018-11-14T18:48:11.921Z,59.63
2018-11-14T18:50:41.968Z,64.00
2018-11-14T18:53:12.110Z,67.03
2018-11-14T18:55:42.222Z,64.73
2018-11-14T18:58:12.135Z,70.20
2018-11-14T19:05:30.821Z,57.37
2018-11-14T19:08:01.029Z,60.17
2018-11-14T19:10:32.692Z,53.70
2018-11-14T19:13:03.011Z,54.70
2018-11-14T19:15:34.393Z,56.83
2018-11-14T19:18:04.349Z,58.47
2018-11-14T19:20:35.493Z,53.27
2018-11-14T19:23:06.997Z,56.93
2018-11-14T19:25:37.993Z,53.87
2018-11-14T19:28:09.806Z,61.87
2018-11-14T19:30:39.979Z,54.63
2018-11-14T19:33:10.250Z,52.83
2018-11-14T19:35:40.297Z,63.03
2018-11-14T19:38:10.543Z,62.50
2018-11-14T19:40:40.626Z,58.53
2018-11-14T19:43:11.741Z,57.50
2018-11-14T19:45:42.456Z,58.07
2018-11-14T19:48:12.754Z,55.93
2018-11-14T19:50:43.170Z,66.03
2018-11-14T19:53:13.552Z,63.33
2018-11-14T19:55:43.756Z,67.27
2018-11-14T19:58:13.502Z,67.40
2018-11-14T20:00:44.325Z,61.50
2018-11-14T20:03:14.425Z,67.43
2018-11-14T20:05:44.658Z,68.87
2018-11-14T20:08:14.915Z,69.57
2018-11-14T20:10:45.094Z,67.40
2018-11-14T20:13:15.008Z,68.87
2018-11-14T20:15:45.266Z,65.03
2018-11-14T20:18:15.176Z,66.30
2018-11-14T20:20:45.300Z,63.40
2018-11-14T20:23:15.379Z,69.20
2018-11-14T20:25:45.760Z,66.60
2018-11-14T20:28:15.716Z,63.30
2018-11-14T20:30:45.755Z,68.70
2018-11-14T20:33:15.868Z,69.20
2018-11-14T20:35:46.324Z,62.23
2018-11-14T20:38:16.382Z,68.27
2018-11-14T20:40:46.321Z,65.70
2018-11-14T20:43:16.420Z,68.57
2018-11-14T20:45:46.648Z,68.73
2018-11-14T20:48:16.700Z,72.43
2018-11-14T20:50:47.065Z,66.73
2018-11-14T20:53:17.170Z,70.30
2018-11-14T20:55:47.319Z,64.23
2018-11-14T20:58:17.282Z,65.63
2018-11-14T21:00:47.331Z,65.53
2018-11-14T21:03:17.515Z,67.27
2018-11-14T21:05:47.928Z,65.53
2018-11-14T21:08:17.819Z,68.83
2018-11-14T21:10:47.954Z,64.20
2018-11-14T21:13:17.977Z,67.60
2018-11-14T21:15:48.229Z,75.43
2018-11-14T21:18:18.107Z,68.20
2018-11-14T21:20:48.095Z,66.40
2018-11-14T21:23:18.199Z,72.57
2018-11-14T21:25:48.362Z,77.53
2018-11-14T21:28:18.556Z,75.37
2018-11-14T21:30:48.573Z,69.87
2018-11-14T21:33:18.597Z,75.43
2018-11-14T21:35:48.654Z,77.40
2018-11-14T21:38:18.565Z,73.10
2018-11-14T21:40:48.499Z,68.40
2018-11-14T21:43:18.573Z,72.70
2018-11-14T21:45:48.714Z,71.37
2018-11-14T21:48:19.131Z,71.47
2018-11-14T21:50:49.226Z,77.50
2018-11-14T21:53:19.244Z,81.00
2018-11-14T21:55:49.161Z,83.53
2018-11-14T21:58:18.970Z,78.30
2018-11-14T22:00:49.027Z,81.83
2018-11-14T22:03:19.026Z,79.33
2018-11-14T22:12:37.138Z,82.47
2018-11-14T22:15:08.718Z,76.97
2018-11-14T22:17:40.045Z,78.13
2018-11-14T22:20:12.600Z,82.00
2018-11-14T22:22:43.945Z,80.50
2018-11-14T22:25:16.726Z,84.57
2018-11-14T22:27:47.810Z,78.97
2018-11-14T22:30:23.678Z,73.23
2018-11-14T22:32:54.837Z,85.60
2018-11-14T22:35:27.223Z,72.23
2018-11-14T22:37:58.176Z,77.30
2018-11-14T22:40:30.382Z,80.63
2018-11-14T22:43:01.186Z,77.83
2018-11-14T22:45:33.378Z,75.77
2018-11-14T22:48:04.317Z,77.37
2018-11-14T22:50:34.943Z,80.67
2018-11-14T22:53:05.738Z,79.40
2018-11-14T22:55:36.861Z,77.87
2018-11-14T22:58:08.189Z,75.40
2018-11-14T23:00:46.298Z,74.47
2018-11-14T23:03:17.502Z,80.00
2018-11-14T23:05:48.506Z,85.50
2018-11-14T23:08:19.769Z,79.83
2018-11-14T23:10:51.414Z,77.33
2018-11-14T23:13:21.361Z,75.47
2018-11-14T23:15:52.181Z,75.40
2018-11-14T23:18:22.230Z,81.87
2018-11-14T23:20:52.139Z,90.43
2018-11-14T23:23:23.772Z,83.70
2018-11-14T23:25:54.019Z,75.87
2018-11-14T23:28:24.756Z,83.63
2018-11-14T23:30:55.508Z,84.40
2018-11-14T23:33:26.424Z,80.43
2018-11-14T23:35:57.698Z,88.97
2018-11-14T23:38:28.662Z,72.97
2018-11-14T23:40:58.927Z,85.73
2018-11-14T23:43:29.681Z,82.17
2018-11-14T23:46:00.576Z,74.93
2018-11-14T23:48:31.385Z,80.50
2018-11-14T23:51:02.768Z,85.90
2018-11-14T23:53:32.713Z,80.27
2018-11-14T23:56:03.577Z,89.43
2018-11-14T23:58:34.518Z,86.43
